sensor_id;sensor_type;location;lat;lon;timestamp;P1;durP1;ratioP1;P2;durP2;ratioP2
73239;SDS011;61452;40.054;4.110;2022-12-11T00:00:52;10.65;;;3.05;;
73239;SDS011;61452;40.054;4.110;2022-12-11T00:05:54;15.57;;;4.00;;
73239;SDS011;61452;40.054;4.110;2022-12-11T00:10:56;16.20;;;3.53;;
73239;SDS011;61452;40.054;4.110;2022-12-11T00:15:58;16.83;;;4.13;;
73239;SDS011;61452;40.054;4.110;2022-12-11T00:21:04;16.33;;;3.55;;
73239;SDS011;61452;40.054;4.110;2022-12-11T00:26:09;27.83;;;6.70;;
73239;SDS011;61452;40.054;4.110;2022-12-11T00:31:15;18.90;;;4.57;;
73239;SDS011;61452;40.054;4.110;2022-12-11T00:36:20;18.08;;;4.28;;
73239;SDS011;61452;40.054;4.110;2022-12-11T00:41:24;31.08;;;6.32;;
73239;SDS011;61452;40.054;4.110;2022-12-11T00:46:26;25.38;;;5.65;;
73239;SDS011;61452;40.054;4.110;2022-12-11T00:51:28;28.00;;;6.50;;
73239;SDS011;61452;40.054;4.110;2022-12-11T00:56:30;29.17;;;7.28;;
73239;SDS011;61452;40.054;4.110;2022-12-11T01:01:33;28.45;;;6.78;;
73239;SDS011;61452;40.054;4.110;2022-12-11T01:06:35;27.63;;;6.85;;
73239;SDS011;61452;40.054;4.110;2022-12-11T01:11:37;29.85;;;6.97;;
73239;SDS011;61452;40.054;4.110;2022-12-11T01:16:40;29.67;;;6.30;;
73239;SDS011;61452;40.054;4.110;2022-12-11T01:21:42;31.63;;;7.70;;
73239;SDS011;61452;40.054;4.110;2022-12-11T01:26:44;23.40;;;5.57;;
73239;SDS011;61452;40.054;4.110;2022-12-11T01:31:46;31.92;;;6.82;;
73239;SDS011;61452;40.054;4.110;2022-12-11T01:36:50;30.95;;;5.40;;
73239;SDS011;61452;40.054;4.110;2022-12-11T01:41:57;27.77;;;6.70;;
73239;SDS011;61452;40.054;4.110;2022-12-11T01:46:59;29.35;;;6.80;;
73239;SDS011;61452;40.054;4.110;2022-12-11T01:52:06;27.08;;;6.72;;
73239;SDS011;61452;40.054;4.110;2022-12-11T01:57:12;27.45;;;5.40;;
73239;SDS011;61452;40.054;4.110;2022-12-11T02:02:18;26.73;;;6.63;;
73239;SDS011;61452;40.054;4.110;2022-12-11T02:07:23;23.40;;;5.50;;
73239;SDS011;61452;40.054;4.110;2022-12-11T02:12:30;33.03;;;7.30;;
73239;SDS011;61452;40.054;4.110;2022-12-11T02:17:42;35.25;;;6.90;;
73239;SDS011;61452;40.054;4.110;2022-12-11T02:33:33;23.35;;;5.10;;
73239;SDS011;61452;40.054;4.110;2022-12-11T02:38:45;20.35;;;5.13;;
73239;SDS011;61452;40.054;4.110;2022-12-11T02:43:52;25.30;;;6.10;;
73239;SDS011;61452;40.054;4.110;2022-12-11T02:48:57;21.75;;;4.47;;
73239;SDS011;61452;40.054;4.110;2022-12-11T02:53:59;22.55;;;4.97;;
73239;SDS011;61452;40.054;4.110;2022-12-11T02:59:07;19.70;;;5.63;;
73239;SDS011;61452;40.054;4.110;2022-12-11T03:04:14;22.15;;;5.85;;
73239;SDS011;61452;40.054;4.110;2022-12-11T03:09:17;29.67;;;5.65;;
73239;SDS011;61452;40.054;4.110;2022-12-11T03:14:19;21.70;;;5.30;;
73239;SDS011;61452;40.054;4.110;2022-12-11T03:19:32;16.92;;;4.07;;
73239;SDS011;61452;40.054;4.110;2022-12-11T03:24:42;17.98;;;4.40;;
73239;SDS011;61452;40.054;4.110;2022-12-11T03:29:53;19.50;;;4.53;;
73239;SDS011;61452;40.054;4.110;2022-12-11T03:35:01;19.48;;;4.70;;
73239;SDS011;61452;40.054;4.110;2022-12-11T03:40:13;17.10;;;4.10;;
73239;SDS011;61452;40.054;4.110;2022-12-11T03:45:17;19.33;;;4.95;;
73239;SDS011;61452;40.054;4.110;2022-12-11T03:50:21;18.58;;;4.47;;
73239;SDS011;61452;40.054;4.110;2022-12-11T03:55:25;14.25;;;3.70;;
73239;SDS011;61452;40.054;4.110;2022-12-11T04:00:28;17.23;;;3.95;;
73239;SDS011;61452;40.054;4.110;2022-12-11T04:05:30;17.25;;;4.30;;
73239;SDS011;61452;40.054;4.110;2022-12-11T04:10:32;21.75;;;4.60;;
73239;SDS011;61452;40.054;4.110;2022-12-11T04:15:35;15.77;;;5.07;;
73239;SDS011;61452;40.054;4.110;2022-12-11T04:20:38;18.60;;;4.95;;
73239;SDS011;61452;40.054;4.110;2022-12-11T04:26:15;14.38;;;3.95;;
73239;SDS011;61452;40.054;4.110;2022-12-11T04:31:19;12.52;;;4.30;;
73239;SDS011;61452;40.054;4.110;2022-12-11T04:36:23;11.63;;;3.55;;
73239;SDS011;61452;40.054;4.110;2022-12-11T04:41:25;9.93;;;3.45;;
73239;SDS011;61452;40.054;4.110;2022-12-11T04:46:27;10.95;;;3.53;;
73239;SDS011;61452;40.054;4.110;2022-12-11T04:51:29;13.88;;;3.63;;
73239;SDS011;61452;40.054;4.110;2022-12-11T04:56:31;11.15;;;3.28;;
73239;SDS011;61452;40.054;4.110;2022-12-11T05:01:33;14.10;;;3.90;;
73239;SDS011;61452;40.054;4.110;2022-12-11T05:06:35;14.52;;;3.72;;
73239;SDS011;61452;40.054;4.110;2022-12-11T05:11:37;12.70;;;3.88;;
73239;SDS011;61452;40.054;4.110;2022-12-11T05:16:40;14.52;;;3.83;;
73239;SDS011;61452;40.054;4.110;2022-12-11T05:21:42;15.45;;;4.53;;
73239;SDS011;61452;40.054;4.110;2022-12-11T05:26:44;18.13;;;4.50;;
73239;SDS011;61452;40.054;4.110;2022-12-11T05:31:46;18.70;;;4.38;;
73239;SDS011;61452;40.054;4.110;2022-12-11T05:36:48;15.73;;;3.75;;
73239;SDS011;61452;40.054;4.110;2022-12-11T05:41:50;13.60;;;3.75;;
73239;SDS011;61452;40.054;4.110;2022-12-11T05:46:52;12.45;;;3.80;;
73239;SDS011;61452;40.054;4.110;2022-12-11T05:51:54;14.85;;;4.35;;
73239;SDS011;61452;40.054;4.110;2022-12-11T05:56:56;15.02;;;4.47;;
73239;SDS011;61452;40.054;4.110;2022-12-11T06:01:58;17.02;;;4.70;;
73239;SDS011;61452;40.054;4.110;2022-12-11T06:07:00;14.40;;;4.05;;
73239;SDS011;61452;40.054;4.110;2022-12-11T06:12:03;13.82;;;4.57;;
73239;SDS011;61452;40.054;4.110;2022-12-11T06:17:05;14.82;;;4.05;;
73239;SDS011;61452;40.054;4.110;2022-12-11T06:22:08;12.20;;;3.30;;
73239;SDS011;61452;40.054;4.110;2022-12-11T06:27:10;15.02;;;3.38;;
73239;SDS011;61452;40.054;4.110;2022-12-11T06:32:12;11.15;;;3.83;;
73239;SDS011;61452;40.054;4.110;2022-12-11T06:37:14;13.68;;;3.65;;
73239;SDS011;61452;40.054;4.110;2022-12-11T06:42:16;10.30;;;2.88;;
73239;SDS011;61452;40.054;4.110;2022-12-11T06:47:18;13.55;;;3.45;;
73239;SDS011;61452;40.054;4.110;2022-12-11T06:52:24;10.40;;;3.03;;
73239;SDS011;61452;40.054;4.110;2022-12-11T06:57:30;9.60;;;3.50;;
73239;SDS011;61452;40.054;4.110;2022-12-11T07:02:33;11.45;;;3.17;;
73239;SDS011;61452;40.054;4.110;2022-12-11T07:07:35;10.90;;;2.97;;
73239;SDS011;61452;40.054;4.110;2022-12-11T07:12:37;10.95;;;3.00;;
73239;SDS011;61452;40.054;4.110;2022-12-11T07:17:40;12.30;;;2.95;;
73239;SDS011;61452;40.054;4.110;2022-12-11T07:22:42;8.43;;;2.75;;
73239;SDS011;61452;40.054;4.110;2022-12-11T07:27:47;8.30;;;2.88;;
73239;SDS011;61452;40.054;4.110;2022-12-11T07:32:49;7.70;;;2.65;;
73239;SDS011;61452;40.054;4.110;2022-12-11T07:37:51;11.10;;;2.72;;
73239;SDS011;61452;40.054;4.110;2022-12-11T07:42:53;6.95;;;2.60;;
73239;SDS011;61452;40.054;4.110;2022-12-11T07:47:55;7.68;;;2.92;;
73239;SDS011;61452;40.054;4.110;2022-12-11T07:52:57;7.10;;;2.45;;
73239;SDS011;61452;40.054;4.110;2022-12-11T07:57:59;7.53;;;3.22;;
73239;SDS011;61452;40.054;4.110;2022-12-11T08:03:01;9.48;;;2.67;;
73239;SDS011;61452;40.054;4.110;2022-12-11T08:08:03;8.10;;;2.30;;
73239;SDS011;61452;40.054;4.110;2022-12-11T08:13:07;6.65;;;2.20;;
73239;SDS011;61452;40.054;4.110;2022-12-11T08:18:09;8.05;;;2.38;;
73239;SDS011;61452;40.054;4.110;2022-12-11T08:23:11;6.38;;;2.10;;
73239;SDS011;61452;40.054;4.110;2022-12-11T08:28:13;6.82;;;2.50;;
73239;SDS011;61452;40.054;4.110;2022-12-11T08:33:15;5.03;;;2.22;;
73239;SDS011;61452;40.054;4.110;2022-12-11T08:38:17;8.05;;;2.55;;
73239;SDS011;61452;40.054;4.110;2022-12-11T08:43:25;6.43;;;2.38;;
73239;SDS011;61452;40.054;4.110;2022-12-11T08:48:27;6.20;;;2.03;;
73239;SDS011;61452;40.054;4.110;2022-12-11T08:53:30;7.03;;;2.17;;
73239;SDS011;61452;40.054;4.110;2022-12-11T08:58:35;6.57;;;2.30;;
73239;SDS011;61452;40.054;4.110;2022-12-11T09:03:38;7.40;;;2.10;;
73239;SDS011;61452;40.054;4.110;2022-12-11T09:08:41;7.40;;;2.25;;
73239;SDS011;61452;40.054;4.110;2022-12-11T09:13:53;7.45;;;2.40;;
73239;SDS011;61452;40.054;4.110;2022-12-11T09:18:56;7.50;;;2.47;;
73239;SDS011;61452;40.054;4.110;2022-12-11T09:23:59;6.60;;;2.05;;
73239;SDS011;61452;40.054;4.110;2022-12-11T09:29:02;6.63;;;2.40;;
73239;SDS011;61452;40.054;4.110;2022-12-11T09:34:07;6.03;;;2.25;;
73239;SDS011;61452;40.054;4.110;2022-12-11T09:39:12;8.13;;;2.15;;
73239;SDS011;61452;40.054;4.110;2022-12-11T09:49:37;4.28;;;1.88;;
73239;SDS011;61452;40.054;4.110;2022-12-11T10:00:39;6.65;;;2.42;;
73239;SDS011;61452;40.054;4.110;2022-12-11T10:05:54;4.97;;;2.00;;
73239;SDS011;61452;40.054;4.110;2022-12-11T10:21:55;3.90;;;1.70;;
73239;SDS011;61452;40.054;4.110;2022-12-11T10:26:59;4.75;;;1.48;;
73239;SDS011;61452;40.054;4.110;2022-12-11T10:37:55;5.45;;;1.52;;
73239;SDS011;61452;40.054;4.110;2022-12-11T10:43:03;4.22;;;1.83;;
73239;SDS011;61452;40.054;4.110;2022-12-11T10:48:06;3.25;;;1.38;;
73239;SDS011;61452;40.054;4.110;2022-12-11T10:53:19;2.53;;;1.20;;
73239;SDS011;61452;40.054;4.110;2022-12-11T10:58:22;5.68;;;1.58;;
73239;SDS011;61452;40.054;4.110;2022-12-11T11:03:28;4.50;;;1.70;;
73239;SDS011;61452;40.054;4.110;2022-12-11T11:08:40;4.70;;;1.55;;
73239;SDS011;61452;40.054;4.110;2022-12-11T11:13:45;3.60;;;1.00;;
73239;SDS011;61452;40.054;4.110;2022-12-11T11:18:53;3.72;;;1.67;;
73239;SDS011;61452;40.054;4.110;2022-12-11T11:23:58;4.95;;;1.33;;
73239;SDS011;61452;40.054;4.110;2022-12-11T11:29:00;4.45;;;1.70;;
73239;SDS011;61452;40.054;4.110;2022-12-11T11:34:06;3.25;;;1.25;;
73239;SDS011;61452;40.054;4.110;2022-12-11T11:44:33;3.45;;;1.50;;
73239;SDS011;61452;40.054;4.110;2022-12-11T11:50:27;2.97;;;1.25;;
73239;SDS011;61452;40.054;4.110;2022-12-11T11:55:07;3.50;;;1.30;;
73239;SDS011;61452;40.054;4.110;2022-12-11T12:00:23;3.10;;;1.17;;
73239;SDS011;61452;40.054;4.110;2022-12-11T12:05:35;3.63;;;1.35;;
73239;SDS011;61452;40.054;4.110;2022-12-11T12:11:32;4.05;;;1.35;;
73239;SDS011;61452;40.054;4.110;2022-12-11T12:28:06;4.82;;;1.50;;
73239;SDS011;61452;40.054;4.110;2022-12-11T12:33:52;4.45;;;1.50;;
73239;SDS011;61452;40.054;4.110;2022-12-11T12:44:18;3.60;;;1.35;;
73239;SDS011;61452;40.054;4.110;2022-12-11T12:49:27;4.93;;;1.60;;
73239;SDS011;61452;40.054;4.110;2022-12-11T12:54:35;3.47;;;1.45;;
73239;SDS011;61452;40.054;4.110;2022-12-11T12:59:39;3.30;;;1.15;;
73239;SDS011;61452;40.054;4.110;2022-12-11T13:04:42;3.58;;;1.40;;
73239;SDS011;61452;40.054;4.110;2022-12-11T13:15:23;3.38;;;1.13;;
73239;SDS011;61452;40.054;4.110;2022-12-11T13:20:26;5.82;;;1.50;;
73239;SDS011;61452;40.054;4.110;2022-12-11T13:25:32;2.67;;;1.10;;
73239;SDS011;61452;40.054;4.110;2022-12-11T13:36:48;1.48;;;0.98;;
73239;SDS011;61452;40.054;4.110;2022-12-11T13:41:30;4.55;;;1.70;;
73239;SDS011;61452;40.054;4.110;2022-12-11T13:46:37;3.08;;;1.70;;
73239;SDS011;61452;40.054;4.110;2022-12-11T13:51:40;3.33;;;1.05;;
73239;SDS011;61452;40.054;4.110;2022-12-11T13:56:57;3.08;;;1.17;;
73239;SDS011;61452;40.054;4.110;2022-12-11T14:02:47;2.90;;;1.02;;
73239;SDS011;61452;40.054;4.110;2022-12-11T14:07:33;2.63;;;1.25;;
73239;SDS011;61452;40.054;4.110;2022-12-11T14:12:42;3.10;;;1.15;;
73239;SDS011;61452;40.054;4.110;2022-12-11T14:17:52;2.75;;;1.05;;
73239;SDS011;61452;40.054;4.110;2022-12-11T14:23:15;2.30;;;1.00;;
73239;SDS011;61452;40.054;4.110;2022-12-11T14:28:19;2.55;;;1.20;;
73239;SDS011;61452;40.054;4.110;2022-12-11T14:33:34;1.92;;;1.00;;
73239;SDS011;61452;40.054;4.110;2022-12-11T14:38:42;3.00;;;1.10;;
73239;SDS011;61452;40.054;4.110;2022-12-11T14:43:49;2.15;;;1.17;;
73239;SDS011;61452;40.054;4.110;2022-12-11T14:48:57;2.90;;;1.52;;
73239;SDS011;61452;40.054;4.110;2022-12-11T14:54:04;3.88;;;1.13;;
73239;SDS011;61452;40.054;4.110;2022-12-11T14:59:14;2.72;;;1.23;;
73239;SDS011;61452;40.054;4.110;2022-12-11T15:04:26;3.20;;;1.45;;
73239;SDS011;61452;40.054;4.110;2022-12-11T15:14:40;3.38;;;0.98;;
73239;SDS011;61452;40.054;4.110;2022-12-11T15:19:48;2.20;;;1.00;;
73239;SDS011;61452;40.054;4.110;2022-12-11T15:24:54;1.90;;;0.93;;
73239;SDS011;61452;40.054;4.110;2022-12-11T15:29:56;2.63;;;0.90;;
73239;SDS011;61452;40.054;4.110;2022-12-11T15:34:58;3.50;;;1.10;;
73239;SDS011;61452;40.054;4.110;2022-12-11T15:40:01;1.58;;;0.77;;
73239;SDS011;61452;40.054;4.110;2022-12-11T15:45:06;1.88;;;0.80;;
73239;SDS011;61452;40.054;4.110;2022-12-11T15:55:22;1.67;;;0.80;;
73239;SDS011;61452;40.054;4.110;2022-12-11T16:00:26;1.88;;;1.00;;
73239;SDS011;61452;40.054;4.110;2022-12-11T16:05:28;2.05;;;1.00;;
73239;SDS011;61452;40.054;4.110;2022-12-11T16:10:30;3.17;;;0.80;;
73239;SDS011;61452;40.054;4.110;2022-12-11T16:15:33;2.28;;;0.98;;
73239;SDS011;61452;40.054;4.110;2022-12-11T16:20:35;2.45;;;0.88;;
73239;SDS011;61452;40.054;4.110;2022-12-11T16:25:43;2.15;;;0.80;;
73239;SDS011;61452;40.054;4.110;2022-12-11T16:30:45;2.50;;;0.80;;
73239;SDS011;61452;40.054;4.110;2022-12-11T16:35:47;2.40;;;1.15;;
73239;SDS011;61452;40.054;4.110;2022-12-11T16:40:57;1.60;;;0.80;;
73239;SDS011;61452;40.054;4.110;2022-12-11T16:46:00;1.73;;;0.80;;
73239;SDS011;61452;40.054;4.110;2022-12-11T16:51:02;2.08;;;0.88;;
73239;SDS011;61452;40.054;4.110;2022-12-11T16:56:04;1.85;;;0.70;;
73239;SDS011;61452;40.054;4.110;2022-12-11T17:01:08;1.27;;;0.68;;
73239;SDS011;61452;40.054;4.110;2022-12-11T17:06:13;1.20;;;0.70;;
73239;SDS011;61452;40.054;4.110;2022-12-11T17:11:18;1.60;;;0.70;;
73239;SDS011;61452;40.054;4.110;2022-12-11T17:16:22;1.70;;;0.70;;
73239;SDS011;61452;40.054;4.110;2022-12-11T17:21:26;1.83;;;0.88;;
73239;SDS011;61452;40.054;4.110;2022-12-11T17:26:29;2.28;;;1.05;;
73239;SDS011;61452;40.054;4.110;2022-12-11T17:31:31;1.45;;;0.73;;
73239;SDS011;61452;40.054;4.110;2022-12-11T17:36:33;2.05;;;0.98;;
73239;SDS011;61452;40.054;4.110;2022-12-11T17:41:36;2.13;;;0.77;;
73239;SDS011;61452;40.054;4.110;2022-12-11T17:46:39;3.33;;;0.70;;
73239;SDS011;61452;40.054;4.110;2022-12-11T17:51:41;1.92;;;0.90;;
73239;SDS011;61452;40.054;4.110;2022-12-11T17:56:43;2.15;;;0.70;;
73239;SDS011;61452;40.054;4.110;2022-12-11T18:01:45;1.38;;;0.80;;
73239;SDS011;61452;40.054;4.110;2022-12-11T18:06:48;2.42;;;0.73;;
73239;SDS011;61452;40.054;4.110;2022-12-11T18:11:49;1.50;;;0.68;;
73239;SDS011;61452;40.054;4.110;2022-12-11T18:16:52;2.10;;;0.80;;
73239;SDS011;61452;40.054;4.110;2022-12-11T18:21:54;1.58;;;0.77;;
73239;SDS011;61452;40.054;4.110;2022-12-11T18:26:57;1.90;;;0.82;;
73239;SDS011;61452;40.054;4.110;2022-12-11T18:32:00;1.52;;;0.73;;
73239;SDS011;61452;40.054;4.110;2022-12-11T18:37:02;1.42;;;0.98;;
73239;SDS011;61452;40.054;4.110;2022-12-11T18:42:04;1.60;;;0.88;;
73239;SDS011;61452;40.054;4.110;2022-12-11T18:47:26;2.10;;;0.80;;
73239;SDS011;61452;40.054;4.110;2022-12-11T18:52:29;1.33;;;0.75;;
73239;SDS011;61452;40.054;4.110;2022-12-11T18:57:31;1.60;;;0.68;;
73239;SDS011;61452;40.054;4.110;2022-12-11T19:02:34;1.83;;;0.98;;
73239;SDS011;61452;40.054;4.110;2022-12-11T19:07:36;1.75;;;0.55;;
73239;SDS011;61452;40.054;4.110;2022-12-11T19:12:39;1.90;;;0.77;;
73239;SDS011;61452;40.054;4.110;2022-12-11T19:17:43;1.17;;;0.50;;
73239;SDS011;61452;40.054;4.110;2022-12-11T19:22:45;2.63;;;0.55;;
73239;SDS011;61452;40.054;4.110;2022-12-11T19:27:47;1.73;;;0.50;;
73239;SDS011;61452;40.054;4.110;2022-12-11T19:32:50;2.00;;;0.70;;
73239;SDS011;61452;40.054;4.110;2022-12-11T19:37:54;1.95;;;0.93;;
73239;SDS011;61452;40.054;4.110;2022-12-11T19:42:56;1.10;;;0.70;;
73239;SDS011;61452;40.054;4.110;2022-12-11T19:47:58;1.17;;;0.60;;
73239;SDS011;61452;40.054;4.110;2022-12-11T19:53:00;1.30;;;0.80;;
73239;SDS011;61452;40.054;4.110;2022-12-11T19:58:02;1.85;;;0.80;;
73239;SDS011;61452;40.054;4.110;2022-12-11T20:03:04;1.95;;;0.70;;
73239;SDS011;61452;40.054;4.110;2022-12-11T20:08:06;1.20;;;0.57;;
73239;SDS011;61452;40.054;4.110;2022-12-11T20:13:29;1.73;;;0.55;;
73239;SDS011;61452;40.054;4.110;2022-12-11T20:18:32;1.17;;;0.60;;
73239;SDS011;61452;40.054;4.110;2022-12-11T20:23:35;1.60;;;0.63;;
73239;SDS011;61452;40.054;4.110;2022-12-11T20:28:37;2.05;;;0.90;;
73239;SDS011;61452;40.054;4.110;2022-12-11T20:33:39;1.92;;;0.88;;
73239;SDS011;61452;40.054;4.110;2022-12-11T20:38:41;1.52;;;0.70;;
73239;SDS011;61452;40.054;4.110;2022-12-11T20:43:44;0.75;;;0.50;;
73239;SDS011;61452;40.054;4.110;2022-12-11T20:48:47;1.20;;;0.50;;
73239;SDS011;61452;40.054;4.110;2022-12-11T20:53:50;0.90;;;0.55;;
73239;SDS011;61452;40.054;4.110;2022-12-11T20:58:58;1.13;;;0.70;;
73239;SDS011;61452;40.054;4.110;2022-12-11T21:04:01;1.40;;;0.70;;
73239;SDS011;61452;40.054;4.110;2022-12-11T21:09:04;1.67;;;0.60;;
73239;SDS011;61452;40.054;4.110;2022-12-11T21:14:08;1.73;;;0.60;;
73239;SDS011;61452;40.054;4.110;2022-12-11T21:19:11;2.00;;;0.80;;
73239;SDS011;61452;40.054;4.110;2022-12-11T21:24:18;1.50;;;0.60;;
73239;SDS011;61452;40.054;4.110;2022-12-11T21:29:23;1.45;;;0.77;;
73239;SDS011;61452;40.054;4.110;2022-12-11T21:34:26;1.30;;;0.50;;
73239;SDS011;61452;40.054;4.110;2022-12-11T21:39:28;1.67;;;0.65;;
73239;SDS011;61452;40.054;4.110;2022-12-11T21:44:39;1.02;;;0.55;;
73239;SDS011;61452;40.054;4.110;2022-12-11T21:55:03;1.42;;;0.60;;
73239;SDS011;61452;40.054;4.110;2022-12-11T22:00:06;1.10;;;0.50;;
73239;SDS011;61452;40.054;4.110;2022-12-11T22:05:12;1.25;;;0.65;;
73239;SDS011;61452;40.054;4.110;2022-12-11T22:10:15;1.38;;;0.70;;
73239;SDS011;61452;40.054;4.110;2022-12-11T22:15:17;1.70;;;0.70;;
73239;SDS011;61452;40.054;4.110;2022-12-11T22:20:19;1.02;;;0.55;;
73239;SDS011;61452;40.054;4.110;2022-12-11T22:25:21;0.95;;;0.50;;
73239;SDS011;61452;40.054;4.110;2022-12-11T22:30:23;2.40;;;0.65;;
73239;SDS011;61452;40.054;4.110;2022-12-11T22:35:25;2.08;;;0.70;;
73239;SDS011;61452;40.054;4.110;2022-12-11T22:40:28;2.72;;;0.75;;
73239;SDS011;61452;40.054;4.110;2022-12-11T22:45:30;1.33;;;0.60;;
73239;SDS011;61452;40.054;4.110;2022-12-11T22:50:33;1.23;;;0.75;;
73239;SDS011;61452;40.054;4.110;2022-12-11T22:55:39;1.40;;;0.60;;
73239;SDS011;61452;40.054;4.110;2022-12-11T23:00:41;1.23;;;0.55;;
73239;SDS011;61452;40.054;4.110;2022-12-11T23:05:43;1.08;;;0.82;;
73239;SDS011;61452;40.054;4.110;2022-12-11T23:10:45;1.20;;;0.60;;
73239;SDS011;61452;40.054;4.110;2022-12-11T23:15:47;0.90;;;0.47;;
73239;SDS011;61452;40.054;4.110;2022-12-11T23:20:49;1.58;;;0.60;;
73239;SDS011;61452;40.054;4.110;2022-12-11T23:25:51;0.70;;;0.60;;
73239;SDS011;61452;40.054;4.110;2022-12-11T23:30:53;1.35;;;0.95;;
73239;SDS011;61452;40.054;4.110;2022-12-11T23:35:56;1.38;;;0.50;;
73239;SDS011;61452;40.054;4.110;2022-12-11T23:40:59;1.85;;;0.95;;
73239;SDS011;61452;40.054;4.110;2022-12-11T23:46:03;0.93;;;0.50;;
73239;SDS011;61452;40.054;4.110;2022-12-11T23:51:08;1.15;;;0.60;;
73239;SDS011;61452;40.054;4.110;2022-12-11T23:56:14;1.40;;;0.68;;
